Terminal Aerodrome Forecast
Issued by NWS

Home | Current Version | Previous Version | Text Only | Print | Product List | Glossary On
Versions: 1 2 3 4 5 6 7 8 9 10 11 12 13 14 15 16 17 18 19 20 21 22
000
FTUS43 KBIS 222300
TAFJMS
TAF
KJMS 222336Z 2300/2324 03010KT 3/4SM -RASN BR VV003
     FM230300 01012KT 1SM -SN BR OVC003
     FM231600 36016KT 2SM -SN BR OVC008=

USA.gov is the U.S. government's official web portal to all federal, state and local government web resources and services.